sensor_id;sensor_type;location;lat;lon;timestamp;P1;durP1;ratioP1;P2;durP2;ratioP2
11620;SDS011;5866;49.094;11.900;2023-04-24T00:02:12;6.63;;;6.03;;
11620;SDS011;5866;49.094;11.900;2023-04-24T00:04:39;7.07;;;6.47;;
11620;SDS011;5866;49.094;11.900;2023-04-24T00:07:11;8.60;;;5.78;;
11620;SDS011;5866;49.094;11.900;2023-04-24T00:09:40;7.13;;;6.10;;
11620;SDS011;5866;49.094;11.900;2023-04-24T00:12:08;6.82;;;6.20;;
11620;SDS011;5866;49.094;11.900;2023-04-24T00:14:36;6.05;;;5.55;;
11620;SDS011;5866;49.094;11.900;2023-04-24T00:17:04;6.90;;;6.28;;
11620;SDS011;5866;49.094;11.900;2023-04-24T00:19:32;6.78;;;6.28;;
11620;SDS011;5866;49.094;11.900;2023-04-24T00:21:59;7.47;;;6.82;;
11620;SDS011;5866;49.094;11.900;2023-04-24T00:24:27;7.53;;;7.00;;
11620;SDS011;5866;49.094;11.900;2023-04-24T00:26:56;7.50;;;6.75;;
11620;SDS011;5866;49.094;11.900;2023-04-24T00:29:23;9.38;;;7.43;;
11620;SDS011;5866;49.094;11.900;2023-04-24T00:31:51;7.95;;;7.30;;
11620;SDS011;5866;49.094;11.900;2023-04-24T00:34:18;8.43;;;7.82;;
11620;SDS011;5866;49.094;11.900;2023-04-24T00:36:46;7.65;;;7.05;;
11620;SDS011;5866;49.094;11.900;2023-04-24T00:39:15;7.00;;;6.40;;
11620;SDS011;5866;49.094;11.900;2023-04-24T00:41:42;6.82;;;6.32;;
11620;SDS011;5866;49.094;11.900;2023-04-24T00:44:12;8.75;;;7.28;;
11620;SDS011;5866;49.094;11.900;2023-04-24T00:46:40;7.28;;;6.68;;
11620;SDS011;5866;49.094;11.900;2023-04-24T00:49:09;7.22;;;5.80;;
11620;SDS011;5866;49.094;11.900;2023-04-24T00:51:36;7.50;;;5.97;;
11620;SDS011;5866;49.094;11.900;2023-04-24T00:54:04;8.95;;;6.97;;
11620;SDS011;5866;49.094;11.900;2023-04-24T00:56:31;6.80;;;6.20;;
11620;SDS011;5866;49.094;11.900;2023-04-24T00:58:59;6.97;;;6.32;;
11620;SDS011;5866;49.094;11.900;2023-04-24T01:01:28;7.40;;;6.78;;
11620;SDS011;5866;49.094;11.900;2023-04-24T01:03:56;8.15;;;7.40;;
11620;SDS011;5866;49.094;11.900;2023-04-24T01:06:26;8.20;;;7.60;;
11620;SDS011;5866;49.094;11.900;2023-04-24T01:08:55;6.80;;;6.30;;
11620;SDS011;5866;49.094;11.900;2023-04-24T01:11:22;7.53;;;6.95;;
11620;SDS011;5866;49.094;11.900;2023-04-24T01:13:50;8.05;;;7.40;;
11620;SDS011;5866;49.094;11.900;2023-04-24T01:16:18;8.25;;;7.65;;
11620;SDS011;5866;49.094;11.900;2023-04-24T01:18:48;8.02;;;7.43;;
11620;SDS011;5866;49.094;11.900;2023-04-24T01:21:16;8.02;;;7.38;;
11620;SDS011;5866;49.094;11.900;2023-04-24T01:23:46;9.55;;;7.68;;
11620;SDS011;5866;49.094;11.900;2023-04-24T01:26:14;7.82;;;7.22;;
11620;SDS011;5866;49.094;11.900;2023-04-24T01:28:43;8.20;;;6.85;;
11620;SDS011;5866;49.094;11.900;2023-04-24T01:31:11;7.43;;;6.72;;
11620;SDS011;5866;49.094;11.900;2023-04-24T01:33:38;8.30;;;7.28;;
11620;SDS011;5866;49.094;11.900;2023-04-24T01:36:06;7.45;;;6.82;;
11620;SDS011;5866;49.094;11.900;2023-04-24T01:38:35;7.32;;;6.72;;
11620;SDS011;5866;49.094;11.900;2023-04-24T01:41:04;7.85;;;7.25;;
11620;SDS011;5866;49.094;11.900;2023-04-24T01:43:31;7.88;;;7.18;;
11620;SDS011;5866;49.094;11.900;2023-04-24T01:45:59;8.27;;;7.55;;
11620;SDS011;5866;49.094;11.900;2023-04-24T01:48:27;8.27;;;7.28;;
11620;SDS011;5866;49.094;11.900;2023-04-24T01:50:55;8.45;;;7.65;;
11620;SDS011;5866;49.094;11.900;2023-04-24T01:53:23;8.45;;;7.72;;
11620;SDS011;5866;49.094;11.900;2023-04-24T01:55:51;10.05;;;8.40;;
11620;SDS011;5866;49.094;11.900;2023-04-24T01:58:19;10.07;;;9.07;;
11620;SDS011;5866;49.094;11.900;2023-04-24T02:00:48;11.75;;;8.45;;
11620;SDS011;5866;49.094;11.900;2023-04-24T02:03:15;9.02;;;8.23;;
11620;SDS011;5866;49.094;11.900;2023-04-24T02:05:43;11.02;;;9.85;;
11620;SDS011;5866;49.094;11.900;2023-04-24T02:08:11;9.95;;;8.90;;
11620;SDS011;5866;49.094;11.900;2023-04-24T02:10:39;10.98;;;9.95;;
11620;SDS011;5866;49.094;11.900;2023-04-24T02:13:06;10.65;;;9.65;;
11620;SDS011;5866;49.094;11.900;2023-04-24T02:15:35;10.05;;;9.07;;
11620;SDS011;5866;49.094;11.900;2023-04-24T02:18:03;11.07;;;9.98;;
11620;SDS011;5866;49.094;11.900;2023-04-24T02:20:30;11.00;;;9.70;;
11620;SDS011;5866;49.094;11.900;2023-04-24T02:23:00;12.23;;;11.02;;
11620;SDS011;5866;49.094;11.900;2023-04-24T02:25:27;11.32;;;10.00;;
11620;SDS011;5866;49.094;11.900;2023-04-24T02:27:55;11.90;;;10.75;;
11620;SDS011;5866;49.094;11.900;2023-04-24T02:30:22;12.02;;;10.75;;
11620;SDS011;5866;49.094;11.900;2023-04-24T02:32:51;10.60;;;9.60;;
11620;SDS011;5866;49.094;11.900;2023-04-24T02:35:19;13.48;;;11.02;;
11620;SDS011;5866;49.094;11.900;2023-04-24T02:37:46;11.60;;;10.48;;
11620;SDS011;5866;49.094;11.900;2023-04-24T02:40:14;11.63;;;10.52;;
11620;SDS011;5866;49.094;11.900;2023-04-24T02:42:41;12.05;;;10.77;;
11620;SDS011;5866;49.094;11.900;2023-04-24T02:45:09;15.65;;;11.45;;
11620;SDS011;5866;49.094;11.900;2023-04-24T02:47:37;13.02;;;11.18;;
11620;SDS011;5866;49.094;11.900;2023-04-24T02:50:07;12.05;;;10.70;;
11620;SDS011;5866;49.094;11.900;2023-04-24T02:52:35;14.75;;;11.73;;
11620;SDS011;5866;49.094;11.900;2023-04-24T02:55:03;13.90;;;12.52;;
11620;SDS011;5866;49.094;11.900;2023-04-24T02:57:31;14.02;;;11.43;;
11620;SDS011;5866;49.094;11.900;2023-04-24T02:59:58;14.77;;;11.38;;
11620;SDS011;5866;49.094;11.900;2023-04-24T03:02:26;13.25;;;11.60;;
11620;SDS011;5866;49.094;11.900;2023-04-24T03:04:54;12.95;;;11.00;;
11620;SDS011;5866;49.094;11.900;2023-04-24T03:07:24;13.43;;;12.02;;
11620;SDS011;5866;49.094;11.900;2023-04-24T03:09:52;14.32;;;12.85;;
11620;SDS011;5866;49.094;11.900;2023-04-24T03:12:19;16.50;;;13.10;;
11620;SDS011;5866;49.094;11.900;2023-04-24T03:14:47;15.73;;;13.70;;
11620;SDS011;5866;49.094;11.900;2023-04-24T03:17:14;16.90;;;14.23;;
11620;SDS011;5866;49.094;11.900;2023-04-24T03:19:41;16.10;;;14.50;;
11620;SDS011;5866;49.094;11.900;2023-04-24T03:22:10;15.85;;;14.25;;
11620;SDS011;5866;49.094;11.900;2023-04-24T03:24:39;14.50;;;13.00;;
11620;SDS011;5866;49.094;11.900;2023-04-24T03:27:07;15.45;;;13.77;;
11620;SDS011;5866;49.094;11.900;2023-04-24T03:29:34;15.25;;;13.25;;
11620;SDS011;5866;49.094;11.900;2023-04-24T03:32:02;16.48;;;14.05;;
11620;SDS011;5866;49.094;11.900;2023-04-24T03:34:30;19.00;;;16.98;;
11620;SDS011;5866;49.094;11.900;2023-04-24T03:36:57;15.75;;;14.02;;
11620;SDS011;5866;49.094;11.900;2023-04-24T03:39:25;17.17;;;15.38;;
11620;SDS011;5866;49.094;11.900;2023-04-24T03:41:54;15.40;;;13.75;;
11620;SDS011;5866;49.094;11.900;2023-04-24T03:44:22;15.73;;;14.25;;
11620;SDS011;5866;49.094;11.900;2023-04-24T03:46:49;14.00;;;12.45;;
11620;SDS011;5866;49.094;11.900;2023-04-24T03:49:17;18.65;;;13.88;;
11620;SDS011;5866;49.094;11.900;2023-04-24T03:51:44;16.40;;;13.45;;
11620;SDS011;5866;49.094;11.900;2023-04-24T03:54:12;14.88;;;13.38;;
11620;SDS011;5866;49.094;11.900;2023-04-24T03:56:39;15.00;;;13.48;;
11620;SDS011;5866;49.094;11.900;2023-04-24T03:59:08;15.95;;;14.45;;
11620;SDS011;5866;49.094;11.900;2023-04-24T04:01:36;15.00;;;13.55;;
11620;SDS011;5866;49.094;11.900;2023-04-24T04:04:04;16.95;;;15.23;;
11620;SDS011;5866;49.094;11.900;2023-04-24T04:06:32;15.75;;;14.23;;
11620;SDS011;5866;49.094;11.900;2023-04-24T04:08:59;17.88;;;16.27;;
11620;SDS011;5866;49.094;11.900;2023-04-24T04:11:27;16.80;;;15.27;;
11620;SDS011;5866;49.094;11.900;2023-04-24T04:13:54;16.70;;;15.25;;
11620;SDS011;5866;49.094;11.900;2023-04-24T04:16:24;18.17;;;16.48;;
11620;SDS011;5866;49.094;11.900;2023-04-24T04:18:51;17.55;;;16.00;;
11620;SDS011;5866;49.094;11.900;2023-04-24T04:21:19;17.55;;;16.05;;
11620;SDS011;5866;49.094;11.900;2023-04-24T04:23:46;19.02;;;17.33;;
11620;SDS011;5866;49.094;11.900;2023-04-24T04:26:14;18.45;;;16.85;;
11620;SDS011;5866;49.094;11.900;2023-04-24T04:28:41;19.77;;;17.80;;
11620;SDS011;5866;49.094;11.900;2023-04-24T04:31:10;17.75;;;16.15;;
11620;SDS011;5866;49.094;11.900;2023-04-24T04:33:40;16.63;;;15.13;;
11620;SDS011;5866;49.094;11.900;2023-04-24T04:36:07;15.68;;;14.18;;
11620;SDS011;5866;49.094;11.900;2023-04-24T04:38:35;15.05;;;13.65;;
11620;SDS011;5866;49.094;11.900;2023-04-24T04:41:03;15.45;;;13.95;;
11620;SDS011;5866;49.094;11.900;2023-04-24T04:43:30;12.52;;;11.43;;
11620;SDS011;5866;49.094;11.900;2023-04-24T04:45:58;16.20;;;14.90;;
11620;SDS011;5866;49.094;11.900;2023-04-24T04:48:26;16.30;;;14.80;;
11620;SDS011;5866;49.094;11.900;2023-04-24T04:50:56;18.13;;;16.67;;
11620;SDS011;5866;49.094;11.900;2023-04-24T04:53:23;17.38;;;15.80;;
11620;SDS011;5866;49.094;11.900;2023-04-24T04:55:52;15.43;;;14.13;;
11620;SDS011;5866;49.094;11.900;2023-04-24T04:58:19;17.45;;;15.75;;
11620;SDS011;5866;49.094;11.900;2023-04-24T05:00:47;15.23;;;13.93;;
11620;SDS011;5866;49.094;11.900;2023-04-24T05:03:14;16.67;;;14.98;;
11620;SDS011;5866;49.094;11.900;2023-04-24T05:05:46;14.32;;;12.90;;
11620;SDS011;5866;49.094;11.900;2023-04-24T05:08:15;15.50;;;14.10;;
11620;SDS011;5866;49.094;11.900;2023-04-24T05:10:52;15.93;;;14.32;;
11620;SDS011;5866;49.094;11.900;2023-04-24T05:13:20;14.32;;;13.13;;
11620;SDS011;5866;49.094;11.900;2023-04-24T05:16:04;15.85;;;14.35;;
11620;SDS011;5866;49.094;11.900;2023-04-24T05:18:31;14.60;;;13.30;;
11620;SDS011;5866;49.094;11.900;2023-04-24T05:20:59;14.45;;;13.15;;
11620;SDS011;5866;49.094;11.900;2023-04-24T05:23:28;14.80;;;13.27;;
11620;SDS011;5866;49.094;11.900;2023-04-24T05:25:56;15.07;;;13.75;;
11620;SDS011;5866;49.094;11.900;2023-04-24T05:28:24;15.48;;;13.85;;
11620;SDS011;5866;49.094;11.900;2023-04-24T05:30:54;13.30;;;12.13;;
11620;SDS011;5866;49.094;11.900;2023-04-24T05:33:22;13.85;;;12.55;;
11620;SDS011;5866;49.094;11.900;2023-04-24T05:35:50;13.45;;;12.25;;
11620;SDS011;5866;49.094;11.900;2023-04-24T05:38:18;13.65;;;12.35;;
11620;SDS011;5866;49.094;11.900;2023-04-24T05:40:47;13.57;;;12.25;;
11620;SDS011;5866;49.094;11.900;2023-04-24T05:43:14;13.35;;;12.35;;
11620;SDS011;5866;49.094;11.900;2023-04-24T05:45:42;11.73;;;10.70;;
11620;SDS011;5866;49.094;11.900;2023-04-24T05:48:09;11.98;;;10.98;;
11620;SDS011;5866;49.094;11.900;2023-04-24T05:50:37;11.25;;;10.35;;
11620;SDS011;5866;49.094;11.900;2023-04-24T05:53:04;11.60;;;10.70;;
11620;SDS011;5866;49.094;11.900;2023-04-24T05:55:33;9.27;;;8.35;;
11620;SDS011;5866;49.094;11.900;2023-04-24T05:58:02;9.00;;;8.25;;
11620;SDS011;5866;49.094;11.900;2023-04-24T06:00:29;9.70;;;8.82;;
11620;SDS011;5866;49.094;11.900;2023-04-24T06:02:57;7.88;;;7.25;;
11620;SDS011;5866;49.094;11.900;2023-04-24T06:05:25;7.22;;;6.63;;
11620;SDS011;5866;49.094;11.900;2023-04-24T06:07:53;7.05;;;6.40;;
11620;SDS011;5866;49.094;11.900;2023-04-24T06:10:21;6.38;;;5.97;;
11620;SDS011;5866;49.094;11.900;2023-04-24T06:12:48;6.82;;;6.22;;
11620;SDS011;5866;49.094;11.900;2023-04-24T06:15:17;6.60;;;6.00;;
11620;SDS011;5866;49.094;11.900;2023-04-24T06:17:45;6.43;;;5.78;;
11620;SDS011;5866;49.094;11.900;2023-04-24T06:20:13;5.43;;;5.03;;
11620;SDS011;5866;49.094;11.900;2023-04-24T06:22:41;5.40;;;4.93;;
11620;SDS011;5866;49.094;11.900;2023-04-24T06:25:08;6.20;;;4.57;;
11620;SDS011;5866;49.094;11.900;2023-04-24T06:27:36;5.00;;;4.70;;
11620;SDS011;5866;49.094;11.900;2023-04-24T06:30:04;5.45;;;5.00;;
11620;SDS011;5866;49.094;11.900;2023-04-24T06:32:33;5.22;;;4.82;;
11620;SDS011;5866;49.094;11.900;2023-04-24T06:35:01;4.95;;;4.55;;
11620;SDS011;5866;49.094;11.900;2023-04-24T06:37:28;4.88;;;4.47;;
11620;SDS011;5866;49.094;11.900;2023-04-24T06:39:56;4.93;;;4.55;;
11620;SDS011;5866;49.094;11.900;2023-04-24T06:42:23;4.03;;;3.72;;
11620;SDS011;5866;49.094;11.900;2023-04-24T06:44:51;3.67;;;3.45;;
11620;SDS011;5866;49.094;11.900;2023-04-24T06:47:18;3.22;;;3.03;;
11620;SDS011;5866;49.094;11.900;2023-04-24T06:49:47;3.38;;;3.08;;
11620;SDS011;5866;49.094;11.900;2023-04-24T06:52:17;4.15;;;3.08;;
11620;SDS011;5866;49.094;11.900;2023-04-24T06:54:44;3.15;;;2.95;;
11620;SDS011;5866;49.094;11.900;2023-04-24T06:57:12;2.70;;;2.50;;
11620;SDS011;5866;49.094;11.900;2023-04-24T06:59:39;5.57;;;2.72;;
11620;SDS011;5866;49.094;11.900;2023-04-24T07:02:07;3.67;;;2.28;;
11620;SDS011;5866;49.094;11.900;2023-04-24T07:04:35;3.05;;;2.85;;
11620;SDS011;5866;49.094;11.900;2023-04-24T07:07:04;2.67;;;2.58;;
11620;SDS011;5866;49.094;11.900;2023-04-24T07:09:32;2.70;;;2.50;;
11620;SDS011;5866;49.094;11.900;2023-04-24T07:12:04;2.80;;;2.30;;
11620;SDS011;5866;49.094;11.900;2023-04-24T07:14:32;3.67;;;2.30;;
11620;SDS011;5866;49.094;11.900;2023-04-24T07:16:59;2.22;;;2.13;;
11620;SDS011;5866;49.094;11.900;2023-04-24T07:19:27;2.35;;;2.20;;
11620;SDS011;5866;49.094;11.900;2023-04-24T07:21:54;2.38;;;2.28;;
11620;SDS011;5866;49.094;11.900;2023-04-24T07:24:25;2.78;;;2.13;;
11620;SDS011;5866;49.094;11.900;2023-04-24T07:26:56;1.90;;;1.77;;
11620;SDS011;5866;49.094;11.900;2023-04-24T07:29:23;4.68;;;2.45;;
11620;SDS011;5866;49.094;11.900;2023-04-24T07:31:51;1.90;;;1.80;;
11620;SDS011;5866;49.094;11.900;2023-04-24T07:34:20;2.08;;;1.85;;
11620;SDS011;5866;49.094;11.900;2023-04-24T07:36:47;2.10;;;2.00;;
11620;SDS011;5866;49.094;11.900;2023-04-24T07:39:15;2.58;;;2.38;;
11620;SDS011;5866;49.094;11.900;2023-04-24T07:41:44;2.00;;;1.83;;
11620;SDS011;5866;49.094;11.900;2023-04-24T07:44:11;2.40;;;2.20;;
11620;SDS011;5866;49.094;11.900;2023-04-24T07:46:39;3.78;;;2.10;;
11620;SDS011;5866;49.094;11.900;2023-04-24T07:49:07;2.10;;;1.98;;
11620;SDS011;5866;49.094;11.900;2023-04-24T07:51:39;3.25;;;2.10;;
11620;SDS011;5866;49.094;11.900;2023-04-24T07:54:07;2.17;;;2.00;;
11620;SDS011;5866;49.094;11.900;2023-04-24T07:56:35;2.75;;;1.95;;
11620;SDS011;5866;49.094;11.900;2023-04-24T07:59:06;3.20;;;2.03;;
11620;SDS011;5866;49.094;11.900;2023-04-24T08:01:34;3.08;;;1.88;;
11620;SDS011;5866;49.094;11.900;2023-04-24T08:04:01;2.30;;;1.95;;
11620;SDS011;5866;49.094;11.900;2023-04-24T08:06:29;2.22;;;1.80;;
11620;SDS011;5866;49.094;11.900;2023-04-24T08:08:58;2.17;;;1.98;;
11620;SDS011;5866;49.094;11.900;2023-04-24T08:11:26;2.13;;;1.98;;
11620;SDS011;5866;49.094;11.900;2023-04-24T08:13:54;2.80;;;1.83;;
11620;SDS011;5866;49.094;11.900;2023-04-24T08:16:23;2.00;;;1.90;;
11620;SDS011;5866;49.094;11.900;2023-04-24T08:18:50;2.40;;;2.30;;
11620;SDS011;5866;49.094;11.900;2023-04-24T08:21:18;3.22;;;2.88;;
11620;SDS011;5866;49.094;11.900;2023-04-24T08:23:46;5.53;;;4.13;;
11620;SDS011;5866;49.094;11.900;2023-04-24T08:26:14;3.17;;;2.97;;
11620;SDS011;5866;49.094;11.900;2023-04-24T08:28:42;3.80;;;3.42;;
11620;SDS011;5866;49.094;11.900;2023-04-24T08:31:09;2.95;;;2.75;;
11620;SDS011;5866;49.094;11.900;2023-04-24T08:33:38;2.38;;;2.13;;
11620;SDS011;5866;49.094;11.900;2023-04-24T08:36:07;2.65;;;2.55;;
11620;SDS011;5866;49.094;11.900;2023-04-24T08:38:34;2.20;;;2.10;;
11620;SDS011;5866;49.094;11.900;2023-04-24T08:41:02;1.90;;;1.80;;
11620;SDS011;5866;49.094;11.900;2023-04-24T08:43:30;2.28;;;2.17;;
11620;SDS011;5866;49.094;11.900;2023-04-24T08:46:00;2.00;;;1.90;;
11620;SDS011;5866;49.094;11.900;2023-04-24T08:48:33;2.05;;;1.85;;
11620;SDS011;5866;49.094;11.900;2023-04-24T08:51:04;2.35;;;2.15;;
11620;SDS011;5866;49.094;11.900;2023-04-24T08:53:37;2.40;;;2.20;;
11620;SDS011;5866;49.094;11.900;2023-04-24T08:56:04;2.58;;;2.38;;
11620;SDS011;5866;49.094;11.900;2023-04-24T08:58:32;2.70;;;2.50;;
11620;SDS011;5866;49.094;11.900;2023-04-24T09:01:00;3.75;;;3.53;;
11620;SDS011;5866;49.094;11.900;2023-04-24T09:03:29;3.22;;;3.08;;
11620;SDS011;5866;49.094;11.900;2023-04-24T09:05:58;4.15;;;2.72;;
11620;SDS011;5866;49.094;11.900;2023-04-24T09:08:28;3.33;;;3.13;;
11620;SDS011;5866;49.094;11.900;2023-04-24T09:10:57;2.63;;;2.42;;
11620;SDS011;5866;49.094;11.900;2023-04-24T09:13:28;2.50;;;2.33;;
11620;SDS011;5866;49.094;11.900;2023-04-24T09:15:55;2.10;;;2.00;;
11620;SDS011;5866;49.094;11.900;2023-04-24T09:18:25;3.20;;;3.00;;
11620;SDS011;5866;49.094;11.900;2023-04-24T09:21:00;2.15;;;2.05;;
11620;SDS011;5866;49.094;11.900;2023-04-24T09:23:31;2.10;;;2.00;;
11620;SDS011;5866;49.094;11.900;2023-04-24T09:25:59;2.35;;;2.15;;
11620;SDS011;5866;49.094;11.900;2023-04-24T09:28:29;2.30;;;2.20;;
11620;SDS011;5866;49.094;11.900;2023-04-24T09:31:04;1.98;;;1.88;;
11620;SDS011;5866;49.094;11.900;2023-04-24T09:33:34;1.95;;;1.85;;
11620;SDS011;5866;49.094;11.900;2023-04-24T09:36:02;1.80;;;1.70;;
11620;SDS011;5866;49.094;11.900;2023-04-24T09:38:31;2.20;;;2.00;;
11620;SDS011;5866;49.094;11.900;2023-04-24T09:41:01;2.33;;;2.20;;
11620;SDS011;5866;49.094;11.900;2023-04-24T09:43:30;2.20;;;2.00;;
11620;SDS011;5866;49.094;11.900;2023-04-24T09:45:58;2.65;;;2.45;;
11620;SDS011;5866;49.094;11.900;2023-04-24T09:48:30;2.47;;;2.38;;
11620;SDS011;5866;49.094;11.900;2023-04-24T09:50:59;2.78;;;2.58;;
11620;SDS011;5866;49.094;11.900;2023-04-24T09:53:27;2.78;;;2.58;;
11620;SDS011;5866;49.094;11.900;2023-04-24T09:55:56;2.75;;;2.55;;
11620;SDS011;5866;49.094;11.900;2023-04-24T09:58:29;2.65;;;2.42;;
11620;SDS011;5866;49.094;11.900;2023-04-24T10:00:57;2.88;;;2.67;;
11620;SDS011;5866;49.094;11.900;2023-04-24T10:03:24;2.85;;;2.65;;
11620;SDS011;5866;49.094;11.900;2023-04-24T10:05:57;2.72;;;2.55;;
11620;SDS011;5866;49.094;11.900;2023-04-24T10:08:26;2.30;;;2.10;;
11620;SDS011;5866;49.094;11.900;2023-04-24T10:11:01;3.45;;;2.30;;
11620;SDS011;5866;49.094;11.900;2023-04-24T10:13:29;2.00;;;1.90;;
11620;SDS011;5866;49.094;11.900;2023-04-24T10:15:57;1.92;;;1.83;;
11620;SDS011;5866;49.094;11.900;2023-04-24T10:18:27;1.90;;;1.80;;
11620;SDS011;5866;49.094;11.900;2023-04-24T10:20:56;1.95;;;1.85;;
11620;SDS011;5866;49.094;11.900;2023-04-24T10:23:24;2.38;;;2.17;;
11620;SDS011;5866;49.094;11.900;2023-04-24T10:25:52;2.33;;;2.13;;
11620;SDS011;5866;49.094;11.900;2023-04-24T10:28:22;2.05;;;1.95;;
11620;SDS011;5866;49.094;11.900;2023-04-24T10:30:51;1.95;;;1.85;;
11620;SDS011;5866;49.094;11.900;2023-04-24T10:33:21;2.00;;;1.77;;
11620;SDS011;5866;49.094;11.900;2023-04-24T10:35:50;2.30;;;2.10;;
11620;SDS011;5866;49.094;11.900;2023-04-24T10:38:21;2.28;;;2.10;;
11620;SDS011;5866;49.094;11.900;2023-04-24T10:40:52;1.80;;;1.70;;
11620;SDS011;5866;49.094;11.900;2023-04-24T10:43:26;1.92;;;1.83;;
11620;SDS011;5866;49.094;11.900;2023-04-24T10:46:00;2.75;;;2.20;;
11620;SDS011;5866;49.094;11.900;2023-04-24T10:48:29;2.38;;;2.05;;
11620;SDS011;5866;49.094;11.900;2023-04-24T10:50:56;2.35;;;2.15;;
11620;SDS011;5866;49.094;11.900;2023-04-24T10:53:25;1.90;;;1.80;;
11620;SDS011;5866;49.094;11.900;2023-04-24T10:55:59;1.90;;;1.80;;
11620;SDS011;5866;49.094;11.900;2023-04-24T10:58:38;2.20;;;2.10;;
11620;SDS011;5866;49.094;11.900;2023-04-24T11:01:07;1.98;;;1.88;;
11620;SDS011;5866;49.094;11.900;2023-04-24T11:03:34;1.95;;;1.85;;
11620;SDS011;5866;49.094;11.900;2023-04-24T11:06:04;2.10;;;2.00;;
11620;SDS011;5866;49.094;11.900;2023-04-24T11:08:38;1.90;;;1.80;;
11620;SDS011;5866;49.094;11.900;2023-04-24T11:11:10;2.00;;;1.90;;
11620;SDS011;5866;49.094;11.900;2023-04-24T11:16:31;3.42;;;2.13;;
11620;SDS011;5866;49.094;11.900;2023-04-24T11:19:01;2.38;;;2.20;;
11620;SDS011;5866;49.094;11.900;2023-04-24T11:21:39;2.80;;;2.70;;
11620;SDS011;5866;49.094;11.900;2023-04-24T11:24:27;2.50;;;2.30;;
11620;SDS011;5866;49.094;11.900;2023-04-24T11:26:58;3.05;;;2.42;;
11620;SDS011;5866;49.094;11.900;2023-04-24T11:29:39;3.05;;;2.85;;
11620;SDS011;5866;49.094;11.900;2023-04-24T11:32:18;2.95;;;2.75;;
11620;SDS011;5866;49.094;11.900;2023-04-24T11:34:56;2.30;;;2.10;;
11620;SDS011;5866;49.094;11.900;2023-04-24T11:37:26;2.17;;;2.03;;
11620;SDS011;5866;49.094;11.900;2023-04-24T11:39:55;14.65;;;8.50;;
11620;SDS011;5866;49.094;11.900;2023-04-24T11:42:24;2.17;;;2.08;;
11620;SDS011;5866;49.094;11.900;2023-04-24T11:44:53;3.40;;;2.10;;
11620;SDS011;5866;49.094;11.900;2023-04-24T11:47:29;2.08;;;1.98;;
11620;SDS011;5866;49.094;11.900;2023-04-24T11:49:57;1.80;;;1.70;;
11620;SDS011;5866;49.094;11.900;2023-04-24T11:52:26;4.63;;;1.90;;
11620;SDS011;5866;49.094;11.900;2023-04-24T11:54:54;2.20;;;2.10;;
11620;SDS011;5866;49.094;11.900;2023-04-24T11:57:23;2.38;;;2.10;;
11620;SDS011;5866;49.094;11.900;2023-04-24T11:59:55;2.28;;;2.17;;
11620;SDS011;5866;49.094;11.900;2023-04-24T12:02:23;2.88;;;2.10;;
11620;SDS011;5866;49.094;11.900;2023-04-24T12:04:51;2.58;;;2.05;;
11620;SDS011;5866;49.094;11.900;2023-04-24T12:07:20;2.40;;;2.20;;
11620;SDS011;5866;49.094;11.900;2023-04-24T12:09:48;2.40;;;2.28;;
11620;SDS011;5866;49.094;11.900;2023-04-24T12:12:18;1.80;;;1.70;;
11620;SDS011;5866;49.094;11.900;2023-04-24T12:14:49;1.85;;;1.70;;
11620;SDS011;5866;49.094;11.900;2023-04-24T12:17:24;2.28;;;2.10;;
11620;SDS011;5866;49.094;11.900;2023-04-24T12:19:57;1.90;;;1.80;;
11620;SDS011;5866;49.094;11.900;2023-04-24T12:22:25;2.50;;;2.35;;
11620;SDS011;5866;49.094;11.900;2023-04-24T12:24:56;1.83;;;1.73;;
11620;SDS011;5866;49.094;11.900;2023-04-24T12:27:29;2.00;;;1.90;;
11620;SDS011;5866;49.094;11.900;2023-04-24T12:29:58;2.80;;;2.00;;
11620;SDS011;5866;49.094;11.900;2023-04-24T12:32:27;3.00;;;1.80;;
11620;SDS011;5866;49.094;11.900;2023-04-24T12:34:55;1.88;;;1.77;;
11620;SDS011;5866;49.094;11.900;2023-04-24T12:37:24;1.75;;;1.65;;
11620;SDS011;5866;49.094;11.900;2023-04-24T12:39:59;3.15;;;2.95;;
11620;SDS011;5866;49.094;11.900;2023-04-24T12:42:32;1.70;;;1.60;;
11620;SDS011;5866;49.094;11.900;2023-04-24T12:45:00;1.67;;;1.58;;
11620;SDS011;5866;49.094;11.900;2023-04-24T12:47:31;1.58;;;1.48;;
11620;SDS011;5866;49.094;11.900;2023-04-24T12:50:00;2.88;;;1.77;;
11620;SDS011;5866;49.094;11.900;2023-04-24T12:52:28;1.80;;;1.70;;
11620;SDS011;5866;49.094;11.900;2023-04-24T12:54:57;1.90;;;1.80;;
11620;SDS011;5866;49.094;11.900;2023-04-24T12:57:26;2.60;;;2.00;;
11620;SDS011;5866;49.094;11.900;2023-04-24T12:59:55;1.95;;;1.85;;
11620;SDS011;5866;49.094;11.900;2023-04-24T13:02:24;2.15;;;1.95;;
11620;SDS011;5866;49.094;11.900;2023-04-24T13:04:54;2.78;;;2.58;;
11620;SDS011;5866;49.094;11.900;2023-04-24T13:07:21;2.95;;;2.15;;
11620;SDS011;5866;49.094;11.900;2023-04-24T13:09:50;2.95;;;1.80;;
11620;SDS011;5866;49.094;11.900;2023-04-24T13:12:18;3.10;;;1.80;;
11620;SDS011;5866;49.094;11.900;2023-04-24T13:14:46;2.40;;;2.30;;
11620;SDS011;5866;49.094;11.900;2023-04-24T13:17:14;2.10;;;1.90;;
11620;SDS011;5866;49.094;11.900;2023-04-24T13:19:43;3.55;;;3.35;;
11620;SDS011;5866;49.094;11.900;2023-04-24T13:22:12;2.50;;;2.40;;
11620;SDS011;5866;49.094;11.900;2023-04-24T13:24:40;1.83;;;1.73;;
11620;SDS011;5866;49.094;11.900;2023-04-24T13:27:08;2.92;;;1.95;;
11620;SDS011;5866;49.094;11.900;2023-04-24T13:29:36;3.55;;;1.90;;
11620;SDS011;5866;49.094;11.900;2023-04-24T13:32:03;2.20;;;1.50;;
11620;SDS011;5866;49.094;11.900;2023-04-24T13:34:31;1.73;;;1.63;;
11620;SDS011;5866;49.094;11.900;2023-04-24T13:37:00;1.63;;;1.52;;
11620;SDS011;5866;49.094;11.900;2023-04-24T13:39:31;2.08;;;1.98;;
11620;SDS011;5866;49.094;11.900;2023-04-24T13:41:59;2.47;;;1.90;;
11620;SDS011;5866;49.094;11.900;2023-04-24T13:44:30;1.88;;;1.77;;
11620;SDS011;5866;49.094;11.900;2023-04-24T13:46:57;1.60;;;1.50;;
11620;SDS011;5866;49.094;11.900;2023-04-24T13:49:26;1.90;;;1.80;;
11620;SDS011;5866;49.094;11.900;2023-04-24T13:51:54;2.00;;;1.90;;
11620;SDS011;5866;49.094;11.900;2023-04-24T13:54:22;1.70;;;1.60;;
11620;SDS011;5866;49.094;11.900;2023-04-24T13:56:55;1.90;;;1.80;;
11620;SDS011;5866;49.094;11.900;2023-04-24T13:59:24;2.75;;;1.67;;
11620;SDS011;5866;49.094;11.900;2023-04-24T14:01:52;5.35;;;4.93;;
11620;SDS011;5866;49.094;11.900;2023-04-24T14:04:21;1.80;;;1.70;;
11620;SDS011;5866;49.094;11.900;2023-04-24T14:06:48;7.93;;;2.15;;
11620;SDS011;5866;49.094;11.900;2023-04-24T14:09:16;2.20;;;2.00;;
11620;SDS011;5866;49.094;11.900;2023-04-24T14:11:44;2.30;;;2.20;;
11620;SDS011;5866;49.094;11.900;2023-04-24T14:14:12;2.22;;;2.10;;
11620;SDS011;5866;49.094;11.900;2023-04-24T14:16:40;2.03;;;1.92;;
11620;SDS011;5866;49.094;11.900;2023-04-24T14:19:08;1.83;;;1.73;;
11620;SDS011;5866;49.094;11.900;2023-04-24T14:21:35;2.30;;;2.15;;
11620;SDS011;5866;49.094;11.900;2023-04-24T14:24:03;2.35;;;2.25;;
11620;SDS011;5866;49.094;11.900;2023-04-24T14:26:30;1.90;;;1.80;;
11620;SDS011;5866;49.094;11.900;2023-04-24T14:28:58;2.28;;;2.17;;
11620;SDS011;5866;49.094;11.900;2023-04-24T14:31:41;1.80;;;1.70;;
11620;SDS011;5866;49.094;11.900;2023-04-24T14:34:08;2.28;;;2.17;;
11620;SDS011;5866;49.094;11.900;2023-04-24T14:36:36;1.98;;;1.88;;
11620;SDS011;5866;49.094;11.900;2023-04-24T14:39:04;2.85;;;2.10;;
11620;SDS011;5866;49.094;11.900;2023-04-24T14:41:33;2.65;;;1.85;;
11620;SDS011;5866;49.094;11.900;2023-04-24T14:44:02;4.60;;;2.00;;
11620;SDS011;5866;49.094;11.900;2023-04-24T14:46:30;2.35;;;2.00;;
11620;SDS011;5866;49.094;11.900;2023-04-24T14:48:59;2.20;;;2.00;;
11620;SDS011;5866;49.094;11.900;2023-04-24T14:51:26;1.88;;;1.73;;
11620;SDS011;5866;49.094;11.900;2023-04-24T14:53:54;2.75;;;2.10;;